sensor_id;sensor_type;location;lat;lon;timestamp;P1;durP1;ratioP1;P2;durP2;ratioP2
79478;SDS011;68943;49.472;17.970;2023-04-01T00:00:48;2.13;;;1.48;;
79478;SDS011;68943;49.472;17.970;2023-04-01T00:03:15;4.63;;;2.00;;
79478;SDS011;68943;49.472;17.970;2023-04-01T00:05:42;4.60;;;2.38;;
79478;SDS011;68943;49.472;17.970;2023-04-01T00:08:08;8.73;;;4.70;;
79478;SDS011;68943;49.472;17.970;2023-04-01T00:10:34;6.90;;;4.03;;
79478;SDS011;68943;49.472;17.970;2023-04-01T00:13:00;7.88;;;5.45;;
79478;SDS011;68943;49.472;17.970;2023-04-01T00:15:26;6.75;;;2.80;;
79478;SDS011;68943;49.472;17.970;2023-04-01T00:17:52;6.18;;;4.32;;
79478;SDS011;68943;49.472;17.970;2023-04-01T00:20:19;6.22;;;3.83;;
79478;SDS011;68943;49.472;17.970;2023-04-01T00:22:46;6.93;;;3.15;;
79478;SDS011;68943;49.472;17.970;2023-04-01T00:25:12;4.97;;;3.13;;
79478;SDS011;68943;49.472;17.970;2023-04-01T00:27:38;6.82;;;4.90;;
79478;SDS011;68943;49.472;17.970;2023-04-01T00:30:04;7.55;;;4.63;;
79478;SDS011;68943;49.472;17.970;2023-04-01T00:32:31;6.78;;;2.53;;
79478;SDS011;68943;49.472;17.970;2023-04-01T00:34:57;3.67;;;1.98;;
79478;SDS011;68943;49.472;17.970;2023-04-01T00:37:27;4.95;;;2.78;;
79478;SDS011;68943;49.472;17.970;2023-04-01T00:39:53;5.68;;;2.63;;
79478;SDS011;68943;49.472;17.970;2023-04-01T00:42:19;6.25;;;2.60;;
79478;SDS011;68943;49.472;17.970;2023-04-01T00:44:55;5.97;;;3.08;;
79478;SDS011;68943;49.472;17.970;2023-04-01T00:47:21;11.25;;;5.43;;
79478;SDS011;68943;49.472;17.970;2023-04-01T00:49:50;11.55;;;6.80;;
79478;SDS011;68943;49.472;17.970;2023-04-01T00:52:17;4.07;;;2.55;;
79478;SDS011;68943;49.472;17.970;2023-04-01T00:54:45;9.52;;;4.28;;
79478;SDS011;68943;49.472;17.970;2023-04-01T00:57:34;6.53;;;3.35;;
79478;SDS011;68943;49.472;17.970;2023-04-01T00:59:57;7.60;;;4.32;;
79478;SDS011;68943;49.472;17.970;2023-04-01T01:02:24;8.00;;;3.70;;
79478;SDS011;68943;49.472;17.970;2023-04-01T01:04:50;3.90;;;2.03;;
79478;SDS011;68943;49.472;17.970;2023-04-01T01:07:35;4.28;;;2.90;;
79478;SDS011;68943;49.472;17.970;2023-04-01T01:10:08;3.15;;;1.98;;
79478;SDS011;68943;49.472;17.970;2023-04-01T01:25:21;3.45;;;1.77;;
79478;SDS011;68943;49.472;17.970;2023-04-01T01:27:55;6.68;;;2.42;;
79478;SDS011;68943;49.472;17.970;2023-04-01T01:30:29;3.35;;;1.75;;
79478;SDS011;68943;49.472;17.970;2023-04-01T01:35:28;2.60;;;1.25;;
79478;SDS011;68943;49.472;17.970;2023-04-01T01:37:56;5.85;;;2.45;;
79478;SDS011;68943;49.472;17.970;2023-04-01T01:40:24;5.80;;;2.50;;
79478;SDS011;68943;49.472;17.970;2023-04-01T01:42:53;3.38;;;1.67;;
79478;SDS011;68943;49.472;17.970;2023-04-01T01:45:21;11.30;;;4.00;;
79478;SDS011;68943;49.472;17.970;2023-04-01T01:47:49;8.00;;;3.47;;
79478;SDS011;68943;49.472;17.970;2023-04-01T01:50:16;6.53;;;2.78;;
79478;SDS011;68943;49.472;17.970;2023-04-01T01:52:42;6.22;;;2.00;;
79478;SDS011;68943;49.472;17.970;2023-04-01T01:55:26;15.23;;;6.05;;
79478;SDS011;68943;49.472;17.970;2023-04-01T01:57:53;30.40;;;10.60;;
79478;SDS011;68943;49.472;17.970;2023-04-01T02:00:20;12.63;;;6.03;;
79478;SDS011;68943;49.472;17.970;2023-04-01T02:02:47;25.38;;;14.48;;
79478;SDS011;68943;49.472;17.970;2023-04-01T02:05:16;68.07;;;28.63;;
79478;SDS011;68943;49.472;17.970;2023-04-01T02:07:43;29.40;;;13.20;;
79478;SDS011;68943;49.472;17.970;2023-04-01T02:10:12;26.50;;;12.18;;
79478;SDS011;68943;49.472;17.970;2023-04-01T02:12:38;13.93;;;6.28;;
79478;SDS011;68943;49.472;17.970;2023-04-01T02:17:30;7.53;;;4.78;;
79478;SDS011;68943;49.472;17.970;2023-04-01T02:22:25;4.68;;;2.40;;
79478;SDS011;68943;49.472;17.970;2023-04-01T02:24:52;2.80;;;1.38;;
79478;SDS011;68943;49.472;17.970;2023-04-01T02:27:19;5.55;;;2.13;;
79478;SDS011;68943;49.472;17.970;2023-04-01T02:29:45;5.03;;;1.77;;
79478;SDS011;68943;49.472;17.970;2023-04-01T02:32:11;7.93;;;2.10;;
79478;SDS011;68943;49.472;17.970;2023-04-01T02:34:38;5.20;;;2.47;;
79478;SDS011;68943;49.472;17.970;2023-04-01T02:37:04;4.10;;;2.45;;
79478;SDS011;68943;49.472;17.970;2023-04-01T02:39:31;3.75;;;1.88;;
79478;SDS011;68943;49.472;17.970;2023-04-01T02:41:57;4.75;;;2.45;;
79478;SDS011;68943;49.472;17.970;2023-04-01T02:44:23;5.57;;;2.63;;
79478;SDS011;68943;49.472;17.970;2023-04-01T02:46:49;4.72;;;2.00;;
79478;SDS011;68943;49.472;17.970;2023-04-01T02:49:15;4.55;;;2.00;;
79478;SDS011;68943;49.472;17.970;2023-04-01T02:51:41;3.10;;;2.05;;
79478;SDS011;68943;49.472;17.970;2023-04-01T02:54:07;5.68;;;1.70;;
79478;SDS011;68943;49.472;17.970;2023-04-01T02:56:33;3.53;;;2.20;;
79478;SDS011;68943;49.472;17.970;2023-04-01T02:58:59;5.07;;;2.65;;
79478;SDS011;68943;49.472;17.970;2023-04-01T03:01:26;3.47;;;2.00;;
79478;SDS011;68943;49.472;17.970;2023-04-01T03:03:52;4.03;;;1.85;;
79478;SDS011;68943;49.472;17.970;2023-04-01T03:06:18;5.30;;;2.00;;
79478;SDS011;68943;49.472;17.970;2023-04-01T03:08:44;4.22;;;2.25;;
79478;SDS011;68943;49.472;17.970;2023-04-01T03:11:10;3.33;;;2.13;;
79478;SDS011;68943;49.472;17.970;2023-04-01T03:13:36;6.13;;;2.42;;
79478;SDS011;68943;49.472;17.970;2023-04-01T03:16:02;4.50;;;2.10;;
79478;SDS011;68943;49.472;17.970;2023-04-01T03:18:28;3.67;;;2.08;;
79478;SDS011;68943;49.472;17.970;2023-04-01T03:20:54;2.83;;;2.10;;
79478;SDS011;68943;49.472;17.970;2023-04-01T03:23:20;6.40;;;4.35;;
79478;SDS011;68943;49.472;17.970;2023-04-01T03:25:47;7.43;;;3.80;;
79478;SDS011;68943;49.472;17.970;2023-04-01T03:28:13;6.60;;;5.45;;
79478;SDS011;68943;49.472;17.970;2023-04-01T03:30:39;7.57;;;4.22;;
79478;SDS011;68943;49.472;17.970;2023-04-01T03:33:05;5.43;;;3.00;;
79478;SDS011;68943;49.472;17.970;2023-04-01T03:35:32;8.10;;;4.53;;
79478;SDS011;68943;49.472;17.970;2023-04-01T03:37:58;5.00;;;2.85;;
79478;SDS011;68943;49.472;17.970;2023-04-01T03:40:24;5.50;;;2.72;;
79478;SDS011;68943;49.472;17.970;2023-04-01T03:42:51;4.55;;;2.78;;
79478;SDS011;68943;49.472;17.970;2023-04-01T03:45:17;4.25;;;2.42;;
79478;SDS011;68943;49.472;17.970;2023-04-01T03:47:43;4.72;;;2.63;;
79478;SDS011;68943;49.472;17.970;2023-04-01T03:50:10;5.07;;;2.88;;
79478;SDS011;68943;49.472;17.970;2023-04-01T03:52:36;8.35;;;2.90;;
79478;SDS011;68943;49.472;17.970;2023-04-01T03:55:02;3.58;;;2.35;;
79478;SDS011;68943;49.472;17.970;2023-04-01T03:57:30;5.03;;;2.30;;
79478;SDS011;68943;49.472;17.970;2023-04-01T03:59:56;4.80;;;2.42;;
79478;SDS011;68943;49.472;17.970;2023-04-01T04:02:22;4.97;;;2.65;;
79478;SDS011;68943;49.472;17.970;2023-04-01T04:04:48;6.93;;;2.25;;
79478;SDS011;68943;49.472;17.970;2023-04-01T04:07:14;6.05;;;2.95;;
79478;SDS011;68943;49.472;17.970;2023-04-01T04:09:40;4.13;;;2.15;;
79478;SDS011;68943;49.472;17.970;2023-04-01T04:12:06;4.63;;;2.83;;
79478;SDS011;68943;49.472;17.970;2023-04-01T04:14:32;2.92;;;1.88;;
79478;SDS011;68943;49.472;17.970;2023-04-01T04:16:58;3.60;;;1.83;;
79478;SDS011;68943;49.472;17.970;2023-04-01T04:19:24;3.53;;;2.03;;
79478;SDS011;68943;49.472;17.970;2023-04-01T04:21:50;5.72;;;2.55;;
79478;SDS011;68943;49.472;17.970;2023-04-01T04:24:16;3.58;;;1.77;;
79478;SDS011;68943;49.472;17.970;2023-04-01T04:26:42;6.30;;;2.65;;
79478;SDS011;68943;49.472;17.970;2023-04-01T04:29:08;4.47;;;2.00;;
79478;SDS011;68943;49.472;17.970;2023-04-01T04:31:34;5.35;;;2.55;;
79478;SDS011;68943;49.472;17.970;2023-04-01T04:34:00;5.47;;;3.25;;
79478;SDS011;68943;49.472;17.970;2023-04-01T04:36:27;4.25;;;2.22;;
79478;SDS011;68943;49.472;17.970;2023-04-01T04:38:53;5.45;;;2.80;;
79478;SDS011;68943;49.472;17.970;2023-04-01T04:41:19;5.03;;;2.33;;
79478;SDS011;68943;49.472;17.970;2023-04-01T04:43:50;8.00;;;3.10;;
79478;SDS011;68943;49.472;17.970;2023-04-01T04:46:17;6.97;;;2.22;;
79478;SDS011;68943;49.472;17.970;2023-04-01T04:48:43;5.63;;;3.03;;
79478;SDS011;68943;49.472;17.970;2023-04-01T04:51:12;7.78;;;5.30;;
79478;SDS011;68943;49.472;17.970;2023-04-01T04:53:38;5.93;;;3.67;;
79478;SDS011;68943;49.472;17.970;2023-04-01T04:56:04;24.63;;;13.23;;
79478;SDS011;68943;49.472;17.970;2023-04-01T04:58:30;33.53;;;17.17;;
79478;SDS011;68943;49.472;17.970;2023-04-01T05:00:56;20.20;;;11.23;;
79478;SDS011;68943;49.472;17.970;2023-04-01T05:03:22;13.48;;;9.60;;
79478;SDS011;68943;49.472;17.970;2023-04-01T05:05:49;18.75;;;12.98;;
79478;SDS011;68943;49.472;17.970;2023-04-01T05:08:16;8.35;;;7.10;;
79478;SDS011;68943;49.472;17.970;2023-04-01T05:10:42;8.20;;;3.47;;
79478;SDS011;68943;49.472;17.970;2023-04-01T05:13:08;3.80;;;2.10;;
79478;SDS011;68943;49.472;17.970;2023-04-01T05:15:34;4.85;;;2.20;;
79478;SDS011;68943;49.472;17.970;2023-04-01T05:18:00;7.93;;;2.58;;
79478;SDS011;68943;49.472;17.970;2023-04-01T05:20:26;8.57;;;3.10;;
79478;SDS011;68943;49.472;17.970;2023-04-01T05:22:56;4.72;;;2.47;;
79478;SDS011;68943;49.472;17.970;2023-04-01T05:25:22;4.53;;;2.17;;
79478;SDS011;68943;49.472;17.970;2023-04-01T05:27:48;6.28;;;2.88;;
79478;SDS011;68943;49.472;17.970;2023-04-01T05:30:14;7.65;;;2.80;;
79478;SDS011;68943;49.472;17.970;2023-04-01T05:32:40;7.53;;;3.45;;
79478;SDS011;68943;49.472;17.970;2023-04-01T05:35:07;7.25;;;2.85;;
79478;SDS011;68943;49.472;17.970;2023-04-01T05:37:34;10.18;;;3.15;;
79478;SDS011;68943;49.472;17.970;2023-04-01T05:40:00;6.15;;;3.80;;
79478;SDS011;68943;49.472;17.970;2023-04-01T05:42:26;11.52;;;5.90;;
79478;SDS011;68943;49.472;17.970;2023-04-01T05:44:52;11.02;;;6.45;;
79478;SDS011;68943;49.472;17.970;2023-04-01T05:47:18;11.23;;;5.50;;
79478;SDS011;68943;49.472;17.970;2023-04-01T05:49:44;6.07;;;3.45;;
79478;SDS011;68943;49.472;17.970;2023-04-01T05:52:10;9.10;;;4.88;;
79478;SDS011;68943;49.472;17.970;2023-04-01T05:54:36;7.53;;;3.95;;
79478;SDS011;68943;49.472;17.970;2023-04-01T05:57:02;26.30;;;5.78;;
79478;SDS011;68943;49.472;17.970;2023-04-01T05:59:28;17.70;;;8.15;;
79478;SDS011;68943;49.472;17.970;2023-04-01T06:01:56;26.40;;;13.38;;
79478;SDS011;68943;49.472;17.970;2023-04-01T06:04:22;27.40;;;12.63;;
79478;SDS011;68943;49.472;17.970;2023-04-01T06:06:49;23.35;;;10.50;;
79478;SDS011;68943;49.472;17.970;2023-04-01T06:09:18;13.75;;;3.85;;
79478;SDS011;68943;49.472;17.970;2023-04-01T06:14:36;7.30;;;0.73;;
79478;SDS011;68943;49.472;17.970;2023-04-01T06:19:50;4.65;;;1.48;;
79478;SDS011;68943;49.472;17.970;2023-04-01T06:41:01;5.45;;;3.70;;
79478;SDS011;68943;49.472;17.970;2023-04-01T06:51:09;23.60;;;10.68;;
79478;SDS011;68943;49.472;17.970;2023-04-01T06:53:46;3.17;;;1.27;;
79478;SDS011;68943;49.472;17.970;2023-04-01T06:56:17;3.65;;;1.83;;
79478;SDS011;68943;49.472;17.970;2023-04-01T06:58:46;3.83;;;1.02;;
79478;SDS011;68943;49.472;17.970;2023-04-01T07:01:14;2.00;;;0.90;;
79478;SDS011;68943;49.472;17.970;2023-04-01T07:04:17;4.15;;;1.00;;
79478;SDS011;68943;49.472;17.970;2023-04-01T07:06:36;4.13;;;3.22;;
79478;SDS011;68943;49.472;17.970;2023-04-01T07:09:05;6.55;;;3.33;;
79478;SDS011;68943;49.472;17.970;2023-04-01T07:11:35;11.10;;;7.30;;
79478;SDS011;68943;49.472;17.970;2023-04-01T07:16:35;3.20;;;1.30;;
79478;SDS011;68943;49.472;17.970;2023-04-01T07:21:30;3.53;;;1.73;;
79478;SDS011;68943;49.472;17.970;2023-04-01T07:24:01;4.97;;;3.10;;
79478;SDS011;68943;49.472;17.970;2023-04-01T07:26:30;20.45;;;8.23;;
79478;SDS011;68943;49.472;17.970;2023-04-01T07:28:56;28.02;;;13.27;;
79478;SDS011;68943;49.472;17.970;2023-04-01T07:34:28;9.55;;;5.53;;
79478;SDS011;68943;49.472;17.970;2023-04-01T07:37:06;2.60;;;1.27;;
79478;SDS011;68943;49.472;17.970;2023-04-01T07:45:00;4.95;;;2.65;;
79478;SDS011;68943;49.472;17.970;2023-04-01T07:52:36;5.05;;;2.90;;
79478;SDS011;68943;49.472;17.970;2023-04-01T07:57:43;3.47;;;1.42;;
79478;SDS011;68943;49.472;17.970;2023-04-01T08:08:03;4.72;;;2.95;;
79478;SDS011;68943;49.472;17.970;2023-04-01T08:10:40;9.63;;;3.17;;
79478;SDS011;68943;49.472;17.970;2023-04-01T08:20:46;9.27;;;3.13;;
79478;SDS011;68943;49.472;17.970;2023-04-01T08:23:14;2.85;;;2.17;;
79478;SDS011;68943;49.472;17.970;2023-04-01T08:25:46;8.57;;;5.10;;
79478;SDS011;68943;49.472;17.970;2023-04-01T08:30:46;4.00;;;1.45;;
79478;SDS011;68943;49.472;17.970;2023-04-01T08:33:19;3.13;;;2.60;;
79478;SDS011;68943;49.472;17.970;2023-04-01T08:36:03;1.25;;;0.85;;
79478;SDS011;68943;49.472;17.970;2023-04-01T08:38:39;4.40;;;1.98;;
79478;SDS011;68943;49.472;17.970;2023-04-01T08:51:13;1.98;;;1.17;;
79478;SDS011;68943;49.472;17.970;2023-04-01T09:17:41;2.38;;;2.17;;
79478;SDS011;68943;49.472;17.970;2023-04-01T09:30:33;2.95;;;1.63;;
79478;SDS011;68943;49.472;17.970;2023-04-01T09:38:26;4.15;;;2.65;;
79478;SDS011;68943;49.472;17.970;2023-04-01T09:40:58;8.35;;;4.70;;
79478;SDS011;68943;49.472;17.970;2023-04-01T09:54:16;2.45;;;1.52;;
79478;SDS011;68943;49.472;17.970;2023-04-01T09:56:52;2.88;;;2.58;;
79478;SDS011;68943;49.472;17.970;2023-04-01T09:59:37;3.90;;;2.05;;
79478;SDS011;68943;49.472;17.970;2023-04-01T10:31:11;3.17;;;2.13;;
79478;SDS011;68943;49.472;17.970;2023-04-01T11:02:40;22.48;;;10.98;;
79478;SDS011;68943;49.472;17.970;2023-04-01T11:05:32;61.13;;;21.50;;
79478;SDS011;68943;49.472;17.970;2023-04-01T11:08:31;28.42;;;13.68;;
79478;SDS011;68943;49.472;17.970;2023-04-01T11:13:53;13.55;;;7.53;;
79478;SDS011;68943;49.472;17.970;2023-04-01T11:26:30;6.55;;;3.10;;
79478;SDS011;68943;49.472;17.970;2023-04-01T11:29:08;6.15;;;3.47;;
79478;SDS011;68943;49.472;17.970;2023-04-01T11:34:29;6.13;;;3.53;;
79478;SDS011;68943;49.472;17.970;2023-04-01T11:42:47;7.57;;;4.15;;
79478;SDS011;68943;49.472;17.970;2023-04-01T11:45:17;7.32;;;4.50;;
79478;SDS011;68943;49.472;17.970;2023-04-01T11:50:15;4.03;;;1.42;;
79478;SDS011;68943;49.472;17.970;2023-04-01T11:58:29;7.47;;;5.45;;
79478;SDS011;68943;49.472;17.970;2023-04-01T12:04:11;1.90;;;0.88;;
79478;SDS011;68943;49.472;17.970;2023-04-01T12:06:48;5.55;;;2.03;;
79478;SDS011;68943;49.472;17.970;2023-04-01T12:14:30;4.28;;;0.28;;
79478;SDS011;68943;49.472;17.970;2023-04-01T12:22:17;1.75;;;1.65;;
79478;SDS011;68943;49.472;17.970;2023-04-01T12:32:36;1.73;;;0.95;;
79478;SDS011;68943;49.472;17.970;2023-04-01T12:40:17;1.10;;;0.68;;
79478;SDS011;68943;49.472;17.970;2023-04-01T12:45:31;1.95;;;0.55;;
79478;SDS011;68943;49.472;17.970;2023-04-01T12:56:01;4.90;;;4.10;;
79478;SDS011;68943;49.472;17.970;2023-04-01T12:58:38;3.65;;;1.15;;
79478;SDS011;68943;49.472;17.970;2023-04-01T13:01:25;3.28;;;1.25;;
79478;SDS011;68943;49.472;17.970;2023-04-01T13:09:13;1.35;;;0.70;;
79478;SDS011;68943;49.472;17.970;2023-04-01T13:14:32;1.60;;;0.85;;
79478;SDS011;68943;49.472;17.970;2023-04-01T13:19:46;2.45;;;1.20;;
79478;SDS011;68943;49.472;17.970;2023-04-01T13:22:15;2.38;;;1.73;;
79478;SDS011;68943;49.472;17.970;2023-04-01T13:27:17;1.63;;;0.88;;
79478;SDS011;68943;49.472;17.970;2023-04-01T13:29:57;1.85;;;0.50;;
79478;SDS011;68943;49.472;17.970;2023-04-01T13:37:41;1.75;;;0.70;;
79478;SDS011;68943;49.472;17.970;2023-04-01T13:46:02;14.77;;;8.85;;
79478;SDS011;68943;49.472;17.970;2023-04-01T13:54:20;88.95;;;42.33;;
79478;SDS011;68943;49.472;17.970;2023-04-01T13:56:44;48.53;;;29.58;;
79478;SDS011;68943;49.472;17.970;2023-04-01T14:20:22;22.95;;;16.75;;
79478;SDS011;68943;49.472;17.970;2023-04-01T14:25:50;4.20;;;2.17;;
79478;SDS011;68943;49.472;17.970;2023-04-01T14:31:23;13.30;;;6.68;;
79478;SDS011;68943;49.472;17.970;2023-04-01T14:34:09;26.52;;;8.77;;
79478;SDS011;68943;49.472;17.970;2023-04-01T14:39:26;7.03;;;4.70;;
79478;SDS011;68943;49.472;17.970;2023-04-01T14:47:28;2.42;;;1.88;;
79478;SDS011;68943;49.472;17.970;2023-04-01T14:52:49;5.35;;;2.58;;
79478;SDS011;68943;49.472;17.970;2023-04-01T14:57:44;5.43;;;1.77;;
79478;SDS011;68943;49.472;17.970;2023-04-01T15:00:23;4.55;;;2.72;;
79478;SDS011;68943;49.472;17.970;2023-04-01T15:02:59;4.43;;;2.58;;
79478;SDS011;68943;49.472;17.970;2023-04-01T15:05:46;6.47;;;3.35;;
79478;SDS011;68943;49.472;17.970;2023-04-01T15:08:20;2.85;;;1.70;;
79478;SDS011;68943;49.472;17.970;2023-04-01T15:24:25;5.95;;;2.15;;
79478;SDS011;68943;49.472;17.970;2023-04-01T15:31:55;4.75;;;2.83;;
79478;SDS011;68943;49.472;17.970;2023-04-01T15:44:46;4.05;;;2.17;;
79478;SDS011;68943;49.472;17.970;2023-04-01T15:49:50;3.72;;;1.48;;
79478;SDS011;68943;49.472;17.970;2023-04-01T15:52:24;2.13;;;1.38;;
79478;SDS011;68943;49.472;17.970;2023-04-01T15:55:06;3.10;;;1.38;;
79478;SDS011;68943;49.472;17.970;2023-04-01T16:20:51;3.50;;;0.75;;
79478;SDS011;68943;49.472;17.970;2023-04-01T16:23:28;1.08;;;0.50;;
79478;SDS011;68943;49.472;17.970;2023-04-01T16:26:01;1.60;;;1.45;;
79478;SDS011;68943;49.472;17.970;2023-04-01T16:28:42;1.55;;;0.80;;
79478;SDS011;68943;49.472;17.970;2023-04-01T16:31:16;1.60;;;1.50;;
79478;SDS011;68943;49.472;17.970;2023-04-01T16:36:22;2.00;;;0.63;;
79478;SDS011;68943;49.472;17.970;2023-04-01T16:41:28;1.27;;;0.77;;
79478;SDS011;68943;49.472;17.970;2023-04-01T16:43:56;1.73;;;1.40;;
79478;SDS011;68943;49.472;17.970;2023-04-01T16:49:04;5.55;;;1.80;;
79478;SDS011;68943;49.472;17.970;2023-04-01T16:51:40;89.68;;;38.83;;
79478;SDS011;68943;49.472;17.970;2023-04-01T16:54:13;8.32;;;4.28;;
79478;SDS011;68943;49.472;17.970;2023-04-01T16:56:45;8.15;;;4.30;;
79478;SDS011;68943;49.472;17.970;2023-04-01T16:59:24;5.30;;;2.92;;
79478;SDS011;68943;49.472;17.970;2023-04-01T17:01:57;5.85;;;3.00;;
79478;SDS011;68943;49.472;17.970;2023-04-01T17:14:54;8.77;;;4.78;;
79478;SDS011;68943;49.472;17.970;2023-04-01T17:17:28;8.00;;;4.20;;
79478;SDS011;68943;49.472;17.970;2023-04-01T17:19:56;10.32;;;6.38;;
79478;SDS011;68943;49.472;17.970;2023-04-01T17:22:31;9.68;;;4.97;;
79478;SDS011;68943;49.472;17.970;2023-04-01T17:25:01;7.55;;;5.65;;
79478;SDS011;68943;49.472;17.970;2023-04-01T17:27:36;10.73;;;6.38;;
79478;SDS011;68943;49.472;17.970;2023-04-01T17:35:41;7.85;;;4.50;;
79478;SDS011;68943;49.472;17.970;2023-04-01T17:40:53;14.80;;;9.30;;
79478;SDS011;68943;49.472;17.970;2023-04-01T17:46:24;15.80;;;8.60;;
79478;SDS011;68943;49.472;17.970;2023-04-01T17:51:33;11.93;;;6.68;;
79478;SDS011;68943;49.472;17.970;2023-04-01T17:56:55;10.25;;;7.32;;
79478;SDS011;68943;49.472;17.970;2023-04-01T18:02:10;13.90;;;8.55;;
79478;SDS011;68943;49.472;17.970;2023-04-01T18:04:59;11.93;;;6.82;;
79478;SDS011;68943;49.472;17.970;2023-04-01T18:17:44;16.45;;;8.50;;
79478;SDS011;68943;49.472;17.970;2023-04-01T18:30:51;12.32;;;7.47;;
79478;SDS011;68943;49.472;17.970;2023-04-01T18:33:20;10.07;;;6.68;;
79478;SDS011;68943;49.472;17.970;2023-04-01T18:35:48;12.10;;;8.68;;
79478;SDS011;68943;49.472;17.970;2023-04-01T18:38:26;13.65;;;7.82;;
79478;SDS011;68943;49.472;17.970;2023-04-01T18:43:46;12.88;;;7.80;;
79478;SDS011;68943;49.472;17.970;2023-04-01T18:46:22;12.05;;;7.28;;
79478;SDS011;68943;49.472;17.970;2023-04-01T18:48:57;12.10;;;9.30;;
79478;SDS011;68943;49.472;17.970;2023-04-01T18:54:24;19.90;;;12.27;;
79478;SDS011;68943;49.472;17.970;2023-04-01T18:56:58;19.40;;;10.45;;
79478;SDS011;68943;49.472;17.970;2023-04-01T18:59:28;19.05;;;10.82;;
79478;SDS011;68943;49.472;17.970;2023-04-01T19:02:14;18.92;;;12.18;;
79478;SDS011;68943;49.472;17.970;2023-04-01T19:04:45;18.80;;;11.15;;
79478;SDS011;68943;49.472;17.970;2023-04-01T19:07:57;16.33;;;10.63;;
79478;SDS011;68943;49.472;17.970;2023-04-01T19:10:12;13.27;;;8.82;;
79478;SDS011;68943;49.472;17.970;2023-04-01T19:15:13;15.38;;;9.43;;
79478;SDS011;68943;49.472;17.970;2023-04-01T19:20:18;15.30;;;9.77;;
79478;SDS011;68943;49.472;17.970;2023-04-01T19:28:07;13.00;;;8.55;;
79478;SDS011;68943;49.472;17.970;2023-04-01T19:30:47;14.02;;;9.30;;
79478;SDS011;68943;49.472;17.970;2023-04-01T19:51:19;13.05;;;8.57;;
79478;SDS011;68943;49.472;17.970;2023-04-01T19:56:17;11.98;;;8.52;;
79478;SDS011;68943;49.472;17.970;2023-04-01T20:01:20;14.75;;;9.48;;
79478;SDS011;68943;49.472;17.970;2023-04-01T20:03:54;19.65;;;10.85;;
79478;SDS011;68943;49.472;17.970;2023-04-01T20:06:27;16.58;;;9.95;;
79478;SDS011;68943;49.472;17.970;2023-04-01T20:09:03;12.73;;;7.95;;
79478;SDS011;68943;49.472;17.970;2023-04-01T20:14:20;15.35;;;10.55;;
79478;SDS011;68943;49.472;17.970;2023-04-01T20:16:58;14.55;;;8.70;;
79478;SDS011;68943;49.472;17.970;2023-04-01T20:19:27;12.77;;;8.48;;
79478;SDS011;68943;49.472;17.970;2023-04-01T20:21:55;11.73;;;7.13;;
79478;SDS011;68943;49.472;17.970;2023-04-01T20:24:41;13.52;;;8.95;;
79478;SDS011;68943;49.472;17.970;2023-04-01T20:29:38;11.73;;;7.18;;
79478;SDS011;68943;49.472;17.970;2023-04-01T20:37:42;16.45;;;9.38;;
79478;SDS011;68943;49.472;17.970;2023-04-01T20:40:31;12.02;;;8.20;;
79478;SDS011;68943;49.472;17.970;2023-04-01T20:45:52;14.27;;;9.63;;
79478;SDS011;68943;49.472;17.970;2023-04-01T20:50:50;14.20;;;8.45;;
79478;SDS011;68943;49.472;17.970;2023-04-01T20:53:20;14.70;;;8.85;;
79478;SDS011;68943;49.472;17.970;2023-04-01T20:58:42;20.20;;;12.63;;
79478;SDS011;68943;49.472;17.970;2023-04-01T21:03:38;19.13;;;10.73;;
79478;SDS011;68943;49.472;17.970;2023-04-01T21:27:12;13.32;;;8.82;;
79478;SDS011;68943;49.472;17.970;2023-04-01T21:34:52;16.95;;;10.13;;
79478;SDS011;68943;49.472;17.970;2023-04-01T21:37:36;19.10;;;11.15;;
79478;SDS011;68943;49.472;17.970;2023-04-01T21:42:51;10.60;;;6.55;;
79478;SDS011;68943;49.472;17.970;2023-04-01T21:45:23;14.10;;;8.50;;
79478;SDS011;68943;49.472;17.970;2023-04-01T22:03:35;15.13;;;9.50;;
79478;SDS011;68943;49.472;17.970;2023-04-01T22:11:38;10.98;;;7.00;;
79478;SDS011;68943;49.472;17.970;2023-04-01T22:14:13;10.98;;;5.40;;
79478;SDS011;68943;49.472;17.970;2023-04-01T22:16:45;10.43;;;6.97;;
79478;SDS011;68943;49.472;17.970;2023-04-01T22:19:28;10.40;;;7.20;;
79478;SDS011;68943;49.472;17.970;2023-04-01T22:21:59;12.98;;;7.10;;
79478;SDS011;68943;49.472;17.970;2023-04-01T22:24:35;11.50;;;6.95;;
79478;SDS011;68943;49.472;17.970;2023-04-01T22:27:07;9.70;;;7.10;;
79478;SDS011;68943;49.472;17.970;2023-04-01T22:29:50;11.15;;;7.57;;
79478;SDS011;68943;49.472;17.970;2023-04-01T22:32:19;13.65;;;8.27;;
79478;SDS011;68943;49.472;17.970;2023-04-01T22:34:53;12.02;;;7.15;;
79478;SDS011;68943;49.472;17.970;2023-04-01T22:37:33;11.40;;;8.32;;
79478;SDS011;68943;49.472;17.970;2023-04-01T22:42:45;12.68;;;7.38;;
79478;SDS011;68943;49.472;17.970;2023-04-01T22:47:40;13.32;;;7.43;;
79478;SDS011;68943;49.472;17.970;2023-04-01T22:50:31;11.95;;;7.35;;
79478;SDS011;68943;49.472;17.970;2023-04-01T22:53:03;10.45;;;6.78;;
79478;SDS011;68943;49.472;17.970;2023-04-01T22:55:32;11.13;;;8.57;;
79478;SDS011;68943;49.472;17.970;2023-04-01T22:58:03;10.27;;;7.10;;
79478;SDS011;68943;49.472;17.970;2023-04-01T23:00:33;10.40;;;6.82;;
79478;SDS011;68943;49.472;17.970;2023-04-01T23:03:05;10.55;;;7.35;;
79478;SDS011;68943;49.472;17.970;2023-04-01T23:05:33;14.32;;;9.13;;
79478;SDS011;68943;49.472;17.970;2023-04-01T23:10:56;13.38;;;8.20;;
79478;SDS011;68943;49.472;17.970;2023-04-01T23:13:25;15.75;;;10.15;;
79478;SDS011;68943;49.472;17.970;2023-04-01T23:15:53;13.73;;;9.23;;
79478;SDS011;68943;49.472;17.970;2023-04-01T23:21:15;16.38;;;10.95;;
79478;SDS011;68943;49.472;17.970;2023-04-01T23:26:15;18.50;;;12.68;;
79478;SDS011;68943;49.472;17.970;2023-04-01T23:28:49;18.48;;;12.13;;
79478;SDS011;68943;49.472;17.970;2023-04-01T23:33:59;18.50;;;12.60;;
79478;SDS011;68943;49.472;17.970;2023-04-01T23:36:25;21.50;;;10.25;;
79478;SDS011;68943;49.472;17.970;2023-04-01T23:38:52;17.88;;;11.02;;
79478;SDS011;68943;49.472;17.970;2023-04-01T23:41:23;15.82;;;9.88;;
79478;SDS011;68943;49.472;17.970;2023-04-01T23:44:12;12.85;;;8.90;;
79478;SDS011;68943;49.472;17.970;2023-04-01T23:46:37;13.38;;;8.55;;
79478;SDS011;68943;49.472;17.970;2023-04-01T23:49:05;12.38;;;8.43;;
79478;SDS011;68943;49.472;17.970;2023-04-01T23:51:39;13.73;;;8.90;;
79478;SDS011;68943;49.472;17.970;2023-04-01T23:54:33;12.82;;;8.40;;
79478;SDS011;68943;49.472;17.970;2023-04-01T23:56:58;11.48;;;7.57;;
79478;SDS011;68943;49.472;17.970;2023-04-01T23:59:29;15.88;;;9.40;;
